createdAt,value
2019-05-16T00:03:32.792Z,3.40
2019-05-16T00:08:36.070Z,2.47
2019-05-16T00:13:39.444Z,2.63
2019-05-16T00:18:42.926Z,2.80
2019-05-16T00:23:48.380Z,3.03
2019-05-16T00:28:51.266Z,2.77
2019-05-16T00:33:54.565Z,2.40
2019-05-16T00:38:57.973Z,2.30
2019-05-16T00:44:01.228Z,2.37
2019-05-16T00:49:04.533Z,2.57
2019-05-16T00:54:08.355Z,3.25
2019-05-16T00:59:11.680Z,2.87
2019-05-16T01:04:14.968Z,3.12
2019-05-16T01:09:18.822Z,3.20
2019-05-16T01:14:22.223Z,2.93
2019-05-16T01:19:27.687Z,2.67
2019-05-16T01:24:30.545Z,3.07
2019-05-16T01:29:33.887Z,2.93
2019-05-16T01:34:37.799Z,2.77
2019-05-16T01:39:41.172Z,2.83
2019-05-16T01:44:44.631Z,2.47
2019-05-16T01:49:48.721Z,3.00
2019-05-16T01:54:52.191Z,2.73
2019-05-16T01:59:55.589Z,3.10
2019-05-16T02:04:59.162Z,3.67
2019-05-16T02:10:02.514Z,2.60
2019-05-16T02:15:07.837Z,3.43
2019-05-16T02:20:11.219Z,2.90
2019-05-16T02:25:14.778Z,2.10
2019-05-16T02:30:21.806Z,3.33
2019-05-16T02:35:23.356Z,2.50
2019-05-16T02:40:26.885Z,2.63
2019-05-16T02:45:32.604Z,3.65
2019-05-16T02:50:35.195Z,2.12
2019-05-16T02:55:40.967Z,2.80
2019-05-16T03:00:43.546Z,3.57
2019-05-16T03:05:50.574Z,3.08
2019-05-16T03:10:53.385Z,2.65
2019-05-16T03:16:00.583Z,3.10
2019-05-16T03:21:02.865Z,3.10
2019-05-16T03:26:06.153Z,3.17
2019-05-16T03:31:14.171Z,3.57
2019-05-16T03:36:15.839Z,4.50
2019-05-16T03:41:21.561Z,3.80
2019-05-16T03:46:24.368Z,2.60
2019-05-16T03:51:30.681Z,4.23
2019-05-16T03:56:32.667Z,3.27
2019-05-16T04:01:35.948Z,3.37
2019-05-16T04:06:41.549Z,3.13
2019-05-16T04:11:44.258Z,3.27
2019-05-16T04:16:50.904Z,3.80
2019-05-16T04:21:52.586Z,2.60
2019-05-16T04:26:55.874Z,4.07
2019-05-16T04:32:01.446Z,3.13
2019-05-16T04:37:04.226Z,3.90
2019-05-16T04:42:11.052Z,4.37
2019-05-16T04:47:13.514Z,3.87
2019-05-16T04:52:16.792Z,3.80
2019-05-16T04:57:20.924Z,4.30
2019-05-16T05:02:24.360Z,4.10
2019-05-16T05:07:27.657Z,3.47
2019-05-16T05:12:31.662Z,3.33
2019-05-16T05:17:35.013Z,3.83
2019-05-16T05:22:39.816Z,3.52
2019-05-16T05:27:43.302Z,3.13
2019-05-16T05:32:46.584Z,3.67
2019-05-16T05:37:50.731Z,3.53
2019-05-16T05:42:54.145Z,3.60
2019-05-16T05:48:00.030Z,3.75
2019-05-16T05:53:02.459Z,4.10
2019-05-16T05:58:05.748Z,3.57
2019-05-16T06:03:10.699Z,3.97
2019-05-16T06:08:14.276Z,3.30
2019-05-16T06:13:20.202Z,3.67
2019-05-16T06:18:23.553Z,2.77
2019-05-16T06:23:26.876Z,4.10
2019-05-16T06:28:30.749Z,3.60
2019-05-16T06:33:34.324Z,3.40
2019-05-16T06:38:37.614Z,3.30
2019-05-16T06:43:40.903Z,2.73
2019-05-16T06:48:44.197Z,3.17
2019-05-16T06:53:49.833Z,3.03
2019-05-16T06:58:52.501Z,2.93
2019-05-16T07:03:55.777Z,4.00
2019-05-16T07:09:01.094Z,4.50
2019-05-16T07:14:04.153Z,4.07
2019-05-16T07:19:07.464Z,4.00
2019-05-16T07:24:11.115Z,4.23
2019-05-16T07:29:14.402Z,4.63
2019-05-16T07:34:17.689Z,3.67
2019-05-16T07:39:20.973Z,4.47
2019-05-16T07:44:25.185Z,5.10
2019-05-16T07:49:30.396Z,4.93
2019-05-16T07:54:34.596Z,3.87
2019-05-16T07:59:37.993Z,4.00
2019-05-16T08:04:41.277Z,3.47
2019-05-16T08:09:44.569Z,4.17
2019-05-16T08:14:50.127Z,6.20
2019-05-16T08:19:52.881Z,4.12
2019-05-16T08:25:02.362Z,4.07
2019-05-16T08:30:07.391Z,4.30
2019-05-16T08:35:11.325Z,4.10
2019-05-16T08:40:14.810Z,4.70
2019-05-16T08:45:21.010Z,4.77
2019-05-16T08:50:23.345Z,4.47
2019-05-16T08:55:26.707Z,4.07
2019-05-16T09:00:33.404Z,4.80
2019-05-16T09:05:35.195Z,3.97
2019-05-16T09:10:59.921Z,4.00
2019-05-16T09:15:43.642Z,4.65
2019-05-16T09:20:49.912Z,5.03
2019-05-16T09:25:52.356Z,4.87
2019-05-16T09:30:57.732Z,5.03
2019-05-16T09:36:01.725Z,4.80
2019-05-16T09:41:07.669Z,3.83
2019-05-16T09:46:16.966Z,4.27
2019-05-16T09:51:21.435Z,3.75
2019-05-16T09:56:27.060Z,4.62
2019-05-16T10:01:29.928Z,5.03
2019-05-16T10:06:34.205Z,4.70
2019-05-16T10:11:41.759Z,3.87
2019-05-16T10:16:43.695Z,4.20
2019-05-16T10:21:47.052Z,4.13
2019-05-16T10:26:54.027Z,4.67
2019-05-16T10:31:56.817Z,5.13
2019-05-16T10:37:00.330Z,4.17
2019-05-16T10:42:03.696Z,4.37
2019-05-16T10:47:07.698Z,3.80
2019-05-16T10:52:11.058Z,9.10
2019-05-16T10:57:14.432Z,4.67
2019-05-16T11:02:19.750Z,3.93
2019-05-16T11:07:23.001Z,3.20
2019-05-16T11:12:45.211Z,4.60
2019-05-16T11:17:31.624Z,3.70
2019-05-16T11:22:37.060Z,3.90
2019-05-16T11:27:39.960Z,4.03
2019-05-16T11:32:43.248Z,3.57
2019-05-16T11:37:47.291Z,3.60
2019-05-16T11:43:05.464Z,3.70
2019-05-16T11:47:56.708Z,3.93
2019-05-16T11:53:00.100Z,3.47
2019-05-16T11:58:03.480Z,3.77
2019-05-16T12:03:06.776Z,4.70
2019-05-16T12:08:10.110Z,4.13
2019-05-16T12:13:25.217Z,3.90
2019-05-16T12:18:18.432Z,3.27
2019-05-16T12:23:22.850Z,4.20
2019-05-16T12:28:27.371Z,4.33
2019-05-16T12:33:30.708Z,4.30
2019-05-16T12:38:34.070Z,4.60
2019-05-16T12:43:45.890Z,4.80
2019-05-16T12:48:42.439Z,3.93
2019-05-16T12:53:47.708Z,3.57
2019-05-16T12:58:51.074Z,4.00
2019-05-16T13:03:54.445Z,4.87
2019-05-16T13:08:59.707Z,3.47
2019-05-16T13:14:08.024Z,3.93
2019-05-16T13:19:09.488Z,3.90
2019-05-16T13:24:12.773Z,3.83
2019-05-16T13:29:18.124Z,3.93
2019-05-16T13:34:21.107Z,4.57
2019-05-16T13:39:24.400Z,5.07
2019-05-16T13:44:27.704Z,3.43
2019-05-16T13:49:30.999Z,3.83
2019-05-16T13:54:36.356Z,4.60
2019-05-16T13:59:39.365Z,4.30
2019-05-16T14:04:43.792Z,3.27
2019-05-16T14:09:47.397Z,3.80
2019-05-16T14:14:52.003Z,3.60
2019-05-16T14:19:57.321Z,3.73
2019-05-16T14:25:00.327Z,3.90
2019-05-16T14:30:07.486Z,3.87
2019-05-16T14:35:10.110Z,3.57
2019-05-16T14:40:13.632Z,4.20
2019-05-16T14:45:18.274Z,4.33
2019-05-16T14:50:21.639Z,5.20
2019-05-16T14:55:27.408Z,4.87
2019-05-16T15:00:30.227Z,4.40
2019-05-16T15:05:33.568Z,4.17
2019-05-16T15:10:37.585Z,3.87
2019-05-16T15:15:41.202Z,4.47
2019-05-16T15:20:46.881Z,6.23
2019-05-16T15:25:49.549Z,3.93
2019-05-16T15:30:52.853Z,4.63
2019-05-16T15:35:57.745Z,8.88
2019-05-16T15:41:01.248Z,3.93
2019-05-16T15:46:07.640Z,3.07
2019-05-16T15:51:09.586Z,3.00
2019-05-16T15:56:12.881Z,3.87
2019-05-16T16:01:18.566Z,2.77
2019-05-16T16:06:22.010Z,3.87
2019-05-16T16:11:27.302Z,2.77
2019-05-16T16:16:30.340Z,4.40
2019-05-16T16:21:33.640Z,4.27
2019-05-16T16:26:38.201Z,3.97
2019-05-16T16:31:41.615Z,4.93
2019-05-16T16:36:47.388Z,4.87
2019-05-16T16:41:49.923Z,4.50
2019-05-16T16:46:53.231Z,5.73
2019-05-16T16:51:57.273Z,4.37
2019-05-16T16:57:00.611Z,5.03
2019-05-16T17:02:03.921Z,5.13
2019-05-16T17:07:07.233Z,5.13
2019-05-16T17:12:10.533Z,5.77
2019-05-16T17:17:13.844Z,6.70
2019-05-16T17:22:20.786Z,6.35
2019-05-16T17:27:26.658Z,5.90
2019-05-16T17:32:31.197Z,5.87
2019-05-16T17:37:37.278Z,6.13
2019-05-16T17:42:39.507Z,4.40
2019-05-16T17:47:42.807Z,5.10
2019-05-16T17:52:47.644Z,4.23
2019-05-16T17:57:51.186Z,4.40
2019-05-16T18:02:56.898Z,4.87
2019-05-16T18:07:59.514Z,4.70
2019-05-16T18:13:02.820Z,3.47
2019-05-16T18:18:07.209Z,4.40
2019-05-16T18:23:10.782Z,4.20
2019-05-16T18:28:14.081Z,4.10
2019-05-16T18:33:17.438Z,3.93
2019-05-16T18:38:20.747Z,3.63
2019-05-16T18:43:24.033Z,3.87
2019-05-16T18:48:28.300Z,3.87
2019-05-16T18:53:31.589Z,3.43
2019-05-16T18:58:37.011Z,3.00
2019-05-16T19:03:39.930Z,2.60
2019-05-16T19:08:43.214Z,2.20
2019-05-16T19:13:47.461Z,3.43
2019-05-16T19:18:50.893Z,3.73
2019-05-16T19:23:56.159Z,4.83
2019-05-16T19:28:59.230Z,3.43
2019-05-16T19:34:02.570Z,3.10
2019-05-16T19:39:08.052Z,2.57
2019-05-16T19:44:12.343Z,3.63
2019-05-16T19:49:15.660Z,2.67
2019-05-16T19:54:18.931Z,4.03
2019-05-16T19:59:22.221Z,3.80
2019-05-16T20:04:27.374Z,2.37
2019-05-16T20:09:30.538Z,2.73
2019-05-16T20:14:33.847Z,2.07
2019-05-16T20:19:37.163Z,2.00
2019-05-16T20:24:40.737Z,2.73
2019-05-16T20:29:44.114Z,2.07
2019-05-16T20:34:47.395Z,2.30
2019-05-16T20:39:50.679Z,2.50
2019-05-16T20:44:53.975Z,4.90
2019-05-16T20:49:57.376Z,8.13
2019-05-16T20:55:00.746Z,5.72
2019-05-16T21:00:07.263Z,3.83
2019-05-16T21:05:10.893Z,3.17
2019-05-16T21:10:16.693Z,2.00
2019-05-16T21:15:19.482Z,2.17
2019-05-16T21:20:22.762Z,2.67
2019-05-16T21:25:26.434Z,3.00
2019-05-16T21:30:29.729Z,3.23
2019-05-16T21:35:33.025Z,2.50
2019-05-16T21:40:37.096Z,2.20
2019-05-16T21:45:40.593Z,2.20
2019-05-16T21:50:46.177Z,3.83
2019-05-16T21:55:48.946Z,2.20
2019-05-16T22:00:56.560Z,2.07
2019-05-16T22:06:00.940Z,1.73
2019-05-16T22:11:06.581Z,2.10
2019-05-16T22:16:09.371Z,1.67
2019-05-16T22:21:12.747Z,2.15
2019-05-16T22:26:16.809Z,2.10
2019-05-16T22:31:20.329Z,3.00
2019-05-16T22:36:23.643Z,2.77
2019-05-16T22:41:26.920Z,2.33
2019-05-16T22:46:30.220Z,1.57
2019-05-16T22:51:33.512Z,1.97
2019-05-16T22:56:37.504Z,2.20
2019-05-16T23:01:41.072Z,2.40
2019-05-16T23:06:44.376Z,2.63
2019-05-16T23:11:48.653Z,2.60
2019-05-16T23:16:51.936Z,3.03
2019-05-16T23:21:56.838Z,2.67
2019-05-16T23:27:00.292Z,2.37
2019-05-16T23:32:03.663Z,2.50
2019-05-16T23:37:09.878Z,2.73
2019-05-16T23:42:13.203Z,3.43
2019-05-16T23:47:16.578Z,2.92
2019-05-16T23:52:19.857Z,2.83
2019-05-16T23:57:23.154Z,3.27
